createdAt,value
2022-11-07T00:03:10.944Z,991.82
2022-11-07T00:08:14.994Z,991.75
2022-11-07T00:13:19.148Z,991.57
2022-11-07T00:18:23.312Z,991.63
2022-11-07T00:23:27.433Z,991.71
2022-11-07T00:28:31.710Z,991.73
2022-11-07T00:33:35.774Z,991.67
2022-11-07T00:38:39.950Z,991.68
2022-11-07T00:43:44.119Z,991.76
2022-11-07T00:48:46.356Z,991.78
2022-11-07T00:53:50.550Z,991.75
2022-11-07T00:58:54.675Z,991.72
2022-11-07T01:03:58.859Z,991.70
2022-11-07T01:09:03.428Z,991.69
2022-11-07T01:14:07.169Z,991.65
2022-11-07T01:19:09.493Z,991.70
2022-11-07T01:24:13.628Z,991.60
2022-11-07T01:29:17.753Z,991.63
2022-11-07T01:34:21.941Z,991.44
2022-11-07T01:39:26.066Z,991.50
2022-11-07T01:44:30.275Z,991.27
2022-11-07T01:49:34.401Z,991.22
2022-11-07T01:54:38.580Z,991.06
2022-11-07T01:59:42.735Z,991.09
2022-11-07T02:04:46.914Z,990.98
2022-11-07T02:09:51.052Z,990.96
2022-11-07T02:14:55.226Z,990.86
2022-11-07T02:19:59.399Z,990.89
2022-11-07T02:25:03.559Z,990.76
2022-11-07T02:30:07.699Z,990.71
2022-11-07T02:35:11.886Z,990.70
2022-11-07T02:40:16.047Z,990.74
2022-11-07T02:45:20.182Z,990.66
2022-11-07T02:50:24.359Z,990.71
2022-11-07T02:55:28.515Z,990.85
2022-11-07T03:00:32.666Z,990.94
2022-11-07T03:05:36.853Z,991.13
2022-11-07T03:10:40.993Z,991.13
2022-11-07T03:15:45.138Z,991.18
2022-11-07T03:20:49.330Z,991.20
2022-11-07T03:25:53.469Z,991.44
2022-11-07T03:30:57.623Z,991.52
2022-11-07T03:36:01.828Z,991.48
2022-11-07T03:41:05.955Z,991.46
2022-11-07T03:46:10.148Z,991.43
2022-11-07T03:51:14.266Z,991.47
2022-11-07T03:56:18.588Z,991.45
2022-11-07T04:01:22.762Z,991.51
2022-11-07T04:06:26.766Z,991.43
2022-11-07T04:11:30.901Z,991.45
2022-11-07T04:16:35.084Z,991.60
2022-11-07T04:21:39.263Z,991.72
2022-11-07T04:26:43.387Z,991.55
2022-11-07T04:31:47.580Z,991.57
2022-11-07T04:36:51.731Z,991.54
2022-11-07T04:41:55.904Z,991.60
2022-11-07T04:47:00.071Z,991.50
2022-11-07T04:52:04.229Z,991.47
2022-11-07T04:57:08.409Z,991.68
2022-11-07T05:02:12.646Z,991.46
2022-11-07T05:07:16.717Z,991.56
2022-11-07T05:12:20.874Z,991.43
2022-11-07T05:17:27.965Z,991.46
2022-11-07T05:22:29.176Z,991.30
2022-11-07T05:27:33.338Z,991.41
2022-11-07T05:32:37.524Z,991.39
2022-11-07T05:37:41.687Z,991.37
2022-11-07T05:42:45.847Z,991.40
2022-11-07T05:47:49.979Z,991.59
2022-11-07T05:52:54.218Z,991.57
2022-11-07T05:57:59.864Z,991.66
2022-11-07T06:03:02.551Z,991.68
2022-11-07T06:08:06.634Z,991.72
2022-11-07T06:13:10.792Z,991.72
2022-11-07T06:18:14.951Z,991.86
2022-11-07T06:23:19.534Z,992.00
2022-11-07T06:28:23.297Z,992.25
2022-11-07T06:33:27.463Z,992.29
2022-11-07T06:38:31.613Z,992.39
2022-11-07T06:43:35.777Z,992.50
2022-11-07T06:48:38.036Z,992.52
2022-11-07T06:53:42.180Z,992.28
2022-11-07T06:58:46.335Z,992.37
2022-11-07T07:03:50.498Z,992.53
2022-11-07T07:08:54.679Z,992.62
2022-11-07T07:14:02.383Z,992.81
2022-11-07T07:19:03.009Z,992.92
2022-11-07T07:24:07.149Z,993.16
2022-11-07T07:29:11.333Z,993.25
2022-11-07T07:34:15.481Z,993.27
2022-11-07T07:39:19.622Z,993.47
2022-11-07T07:44:23.841Z,993.61
2022-11-07T07:49:28.198Z,993.63
2022-11-07T07:54:32.126Z,993.50
2022-11-07T07:59:36.288Z,993.58
2022-11-07T08:04:40.468Z,993.64
2022-11-07T08:09:44.599Z,993.78
2022-11-07T08:14:48.752Z,993.87
2022-11-07T08:19:52.957Z,993.77
2022-11-07T08:24:57.075Z,993.92
2022-11-07T08:30:01.269Z,993.91
2022-11-07T08:35:05.437Z,994.01
2022-11-07T08:40:09.569Z,993.87
2022-11-07T08:45:13.760Z,993.87
2022-11-07T08:50:17.972Z,993.99
2022-11-07T08:55:22.156Z,993.90
2022-11-07T09:00:26.225Z,993.89
2022-11-07T09:05:30.382Z,993.86
2022-11-07T09:10:34.551Z,993.72
2022-11-07T09:15:38.696Z,993.73
2022-11-07T09:20:42.886Z,993.79
2022-11-07T09:25:47.033Z,993.78
2022-11-07T09:30:51.350Z,993.83
2022-11-07T09:35:55.336Z,993.99
2022-11-07T09:40:59.508Z,994.04
2022-11-07T09:46:03.671Z,994.16
2022-11-07T09:51:07.819Z,994.21
2022-11-07T09:56:12.081Z,994.25
2022-11-07T10:01:16.258Z,994.09
2022-11-07T10:06:24.096Z,993.86
2022-11-07T10:11:24.483Z,992.77
2022-11-07T10:16:28.613Z,992.22
2022-11-07T10:21:38.183Z,991.84
2022-11-07T10:26:36.925Z,991.69
2022-11-07T10:31:41.101Z,991.33
2022-11-07T10:36:45.280Z,990.78
2022-11-07T10:41:49.541Z,990.10
2022-11-07T10:46:54.873Z,989.74
2022-11-07T10:51:57.757Z,989.33
2022-11-07T10:57:01.927Z,989.00
2022-11-07T11:02:06.116Z,988.63
2022-11-07T11:07:10.213Z,988.36
2022-11-07T11:12:14.414Z,988.22
2022-11-07T11:17:18.612Z,988.22
2022-11-07T11:22:22.783Z,988.13
2022-11-07T11:27:26.886Z,988.30
2022-11-07T11:32:31.069Z,988.57
2022-11-07T11:37:35.177Z,988.73
2022-11-07T11:42:39.358Z,988.92
2022-11-07T11:47:43.530Z,989.10
2022-11-07T11:52:47.698Z,989.52
2022-11-07T11:57:51.815Z,990.04
2022-11-07T12:02:55.966Z,990.26
2022-11-07T12:08:00.246Z,990.43
2022-11-07T12:13:04.300Z,990.54
2022-11-07T12:18:06.588Z,990.65
2022-11-07T12:23:10.751Z,990.75
2022-11-07T12:28:14.909Z,990.62
2022-11-07T12:33:19.352Z,990.63
2022-11-07T12:38:23.224Z,990.88
2022-11-07T12:43:27.381Z,991.26
2022-11-07T12:48:31.572Z,991.47
2022-11-07T12:53:35.727Z,991.90
2022-11-07T12:58:39.850Z,992.48
2022-11-07T13:03:44.011Z,992.96
2022-11-07T13:08:48.212Z,993.04
2022-11-07T13:13:52.360Z,993.20
2022-11-07T13:18:56.512Z,993.50
2022-11-07T13:24:00.645Z,993.39
2022-11-07T13:29:04.837Z,993.68
2022-11-07T13:34:09.000Z,993.64
2022-11-07T13:39:13.162Z,993.64
2022-11-07T13:44:17.310Z,993.73
2022-11-07T13:49:21.437Z,993.68
2022-11-07T13:54:25.597Z,993.62
2022-11-07T13:59:33.902Z,993.84
2022-11-07T14:04:40.514Z,993.94
2022-11-07T14:09:38.116Z,994.14
2022-11-07T14:14:42.275Z,994.22
2022-11-07T14:19:46.415Z,994.22
2022-11-07T14:24:50.599Z,994.17
2022-11-07T14:29:54.775Z,994.23
2022-11-07T14:34:58.915Z,994.21
2022-11-07T14:40:03.181Z,994.10
2022-11-07T14:45:07.235Z,994.24
2022-11-07T14:50:11.373Z,994.38
2022-11-07T14:55:15.549Z,994.46
2022-11-07T15:00:19.694Z,994.35
2022-11-07T15:10:28.006Z,994.26
2022-11-07T15:15:32.199Z,994.21
2022-11-07T15:20:36.319Z,994.15
2022-11-07T15:25:40.494Z,994.03
2022-11-07T15:30:44.685Z,994.18
2022-11-07T15:35:48.840Z,994.05
2022-11-07T15:40:52.971Z,993.99
2022-11-07T15:45:57.147Z,993.97
2022-11-07T15:51:01.302Z,994.12
2022-11-07T15:56:05.573Z,994.21
2022-11-07T16:01:09.659Z,994.16
2022-11-07T16:06:13.771Z,994.10
2022-11-07T16:11:17.958Z,994.12
2022-11-07T16:16:22.114Z,994.12
2022-11-07T16:21:26.255Z,994.25
2022-11-07T16:26:30.449Z,994.41
2022-11-07T16:31:34.562Z,994.44
2022-11-07T16:36:38.766Z,994.42
2022-11-07T16:41:42.891Z,994.36
2022-11-07T16:46:47.085Z,994.42
2022-11-07T16:51:51.249Z,994.48
2022-11-07T16:56:55.383Z,994.49
2022-11-07T17:01:59.597Z,994.36
2022-11-07T17:07:03.691Z,994.33
2022-11-07T17:12:07.896Z,994.44
2022-11-07T17:17:12.011Z,994.39
2022-11-07T17:22:16.216Z,994.32
2022-11-07T17:27:20.346Z,994.26
2022-11-07T17:32:24.526Z,994.42
2022-11-07T17:37:28.669Z,994.46
2022-11-07T17:42:37.581Z,994.34
2022-11-07T17:47:35.092Z,994.35
2022-11-07T17:52:39.280Z,994.27
2022-11-07T17:57:43.475Z,994.30
2022-11-07T18:02:47.810Z,994.38
2022-11-07T18:07:51.738Z,994.26
2022-11-07T18:12:55.902Z,994.22
2022-11-07T18:17:58.168Z,994.24
2022-11-07T18:23:02.325Z,994.34
2022-11-07T18:28:06.475Z,994.29
2022-11-07T18:33:10.636Z,994.30
2022-11-07T18:38:15.239Z,994.25
2022-11-07T18:43:20.931Z,994.43
2022-11-07T18:48:23.125Z,994.44
2022-11-07T18:53:27.281Z,994.43
2022-11-07T18:58:31.461Z,994.32
2022-11-07T19:03:35.579Z,994.34
2022-11-07T19:08:39.778Z,994.30
2022-11-07T19:13:43.908Z,994.30
2022-11-07T19:18:49.376Z,994.16
2022-11-07T19:23:52.252Z,994.04
2022-11-07T19:28:56.415Z,994.11
2022-11-07T19:34:00.553Z,994.13
2022-11-07T19:39:04.879Z,994.19
2022-11-07T19:44:08.891Z,994.11
2022-11-07T19:49:13.040Z,994.07
2022-11-07T19:54:17.200Z,994.10
2022-11-07T19:59:21.346Z,993.99
2022-11-07T20:04:25.518Z,994.02
2022-11-07T20:09:29.719Z,994.07
2022-11-07T20:14:33.838Z,994.06
2022-11-07T20:19:38.030Z,994.08
2022-11-07T20:24:42.175Z,994.03
2022-11-07T20:29:46.332Z,994.09
2022-11-07T20:34:53.832Z,994.04
2022-11-07T20:39:54.686Z,994.06
2022-11-07T20:44:58.794Z,994.13
2022-11-07T20:50:02.978Z,994.04
2022-11-07T20:55:07.110Z,994.01
2022-11-07T21:00:11.299Z,993.95
2022-11-07T21:05:18.079Z,994.06
2022-11-07T21:10:19.609Z,993.93
2022-11-07T21:15:23.752Z,993.96
2022-11-07T21:20:27.944Z,993.83
2022-11-07T21:25:32.089Z,993.76
2022-11-07T21:30:36.222Z,993.90
2022-11-07T21:35:40.418Z,993.64
2022-11-07T21:40:44.555Z,993.64
2022-11-07T21:45:48.741Z,993.50
2022-11-07T21:50:52.866Z,993.61
2022-11-07T21:55:57.052Z,993.53
2022-11-07T22:01:01.270Z,993.37
2022-11-07T22:06:05.371Z,993.29
2022-11-07T22:11:09.501Z,993.25
2022-11-07T22:16:13.803Z,993.05
2022-11-07T22:21:17.832Z,992.94
2022-11-07T22:26:21.999Z,992.87
2022-11-07T22:31:26.183Z,992.83
2022-11-07T22:36:30.306Z,992.80
2022-11-07T22:41:34.501Z,992.71
2022-11-07T22:46:38.654Z,992.48
2022-11-07T22:51:42.794Z,992.37
2022-11-07T22:56:46.968Z,992.28
2022-11-07T23:01:51.291Z,992.12
2022-11-07T23:06:55.261Z,992.00
2022-11-07T23:11:59.449Z,991.92
2022-11-07T23:17:03.597Z,991.77
2022-11-07T23:22:07.782Z,991.70
2022-11-07T23:27:11.920Z,991.60
2022-11-07T23:32:16.097Z,991.60
2022-11-07T23:37:20.238Z,991.39
2022-11-07T23:42:24.416Z,991.36
2022-11-07T23:47:26.684Z,991.39
2022-11-07T23:52:30.849Z,991.27
2022-11-07T23:57:35.006Z,991.13
